Time;durP1;ratioP1;P1;durP2;ratioP2;P2;SDS_P1;SDS_P2;PMS_P1;PMS_P2;Temp;Humidity;BMP_temperature;BMP_pressure;BME280_temperature;BME280_humidity;BME280_pressure;Samples;Min_cycle;Max_cycle;Signal;HPM_P1;HPM_P2
2024/01/01 00:01:02;;;;;;;0.00;0.00;;;25.00;41.60;;;;;;5090633;28;20205;-51
2024/01/01 00:03:32;;;;;;;0.00;0.00;;;25.00;41.60;;;;;;5087004;28;20701;-52
2024/01/01 00:06:03;;;;;;;0.00;0.00;;;25.00;41.60;;;;;;5070817;28;20221;-43
2024/01/01 00:08:34;;;;;;;0.00;0.00;;;25.00;41.60;;;;;;5071109;28;20237;-51
2024/01/01 00:11:09;;;;;;;0.00;0.00;;;25.00;41.60;;;;;;5070540;28;20686;-52
2024/01/01 00:13:40;;;;;;;0.00;0.00;;;25.00;41.60;;;;;;5070969;28;20193;-50
2024/01/01 00:16:11;;;;;;;0.00;0.00;;;25.00;41.50;;;;;;5079932;28;20582;-45
2024/01/01 00:18:41;;;;;;;0.00;0.00;;;25.00;41.50;;;;;;5086858;28;20225;-47
2024/01/01 00:21:12;;;;;;;0.00;0.00;;;25.00;41.50;;;;;;5070582;28;20728;-49
2024/01/01 00:23:43;;;;;;;0.00;0.00;;;25.10;41.50;;;;;;5070669;28;20191;-50
2024/01/01 00:26:16;;;;;;;0.00;0.00;;;25.10;41.50;;;;;;5069643;28;20683;-43
2024/01/01 00:28:46;;;;;;;0.10;0.10;;;25.10;41.50;;;;;;5070741;28;20206;-47
2024/01/01 00:31:17;;;;;;;0.00;0.00;;;25.10;41.50;;;;;;5070201;28;20786;-50
2024/01/01 00:33:48;;;;;;;0.00;0.00;;;25.10;41.50;;;;;;5069422;28;20199;-49
2024/01/01 00:36:18;;;;;;;0.00;0.00;;;25.00;41.40;;;;;;5069866;28;20210;-51
2024/01/01 00:38:50;;;;;;;0.00;0.00;;;25.10;41.40;;;;;;5084870;28;20234;-45
2024/01/01 00:41:23;;;;;;;0.00;0.00;;;25.00;41.40;;;;;;5068514;28;20540;-48
2024/01/01 00:43:53;;;;;;;0.00;0.00;;;25.10;41.40;;;;;;5070521;28;20205;-51
2024/01/01 00:46:24;;;;;;;0.00;0.00;;;25.10;41.50;;;;;;5069411;28;20221;-51
2024/01/01 00:48:55;;;;;;;0.00;0.00;;;25.10;41.40;;;;;;5070002;28;20209;-51
2024/01/01 00:51:26;;;;;;;0.00;0.00;;;25.10;41.50;;;;;;5084398;28;20225;-50
2024/01/01 00:53:57;;;;;;;0.00;0.00;;;25.10;41.40;;;;;;5085339;28;20201;-50
2024/01/01 00:56:29;;;;;;;0.00;0.00;;;25.10;41.50;;;;;;5068953;28;20570;-46
2024/01/01 00:59:00;;;;;;;0.00;0.00;;;25.10;41.40;;;;;;5068514;28;20702;-49
2024/01/01 01:01:30;;;;;;;0.00;0.00;;;25.10;41.40;;;;;;5068674;28;20209;-50
2024/01/01 01:04:02;;;;;;;0.00;0.00;;;25.10;41.50;;;;;;5069741;28;20580;-50
2024/01/01 01:06:33;;;;;;;0.00;0.00;;;25.10;41.50;;;;;;5076732;28;20668;-46
2024/01/01 01:09:04;;;;;;;0.00;0.00;;;25.10;41.40;;;;;;5085513;28;20199;-45
2024/01/01 01:11:38;;;;;;;0.00;0.00;;;25.10;41.40;;;;;;5069443;28;20571;-46
2024/01/01 01:14:08;;;;;;;0.00;0.00;;;25.10;41.40;;;;;;5057143;28;20488;-48
2024/01/01 01:16:39;;;;;;;0.00;0.00;;;25.10;41.40;;;;;;5068694;28;20218;-43
2024/01/01 01:19:10;;;;;;;0.00;0.00;;;25.10;41.40;;;;;;5069062;28;20229;-48
2024/01/01 01:21:41;;;;;;;0.00;0.00;;;25.10;41.40;;;;;;5068290;28;20202;-49
2024/01/01 01:24:15;;;;;;;0.00;0.00;;;25.10;41.40;;;;;;5069496;28;20380;-46
2024/01/01 01:26:48;;;;;;;0.00;0.00;;;25.10;41.40;;;;;;5052840;28;20695;-51
2024/01/01 01:29:18;;;;;;;0.00;0.00;;;25.10;41.40;;;;;;5066907;28;20190;-45
2024/01/01 01:31:49;;;;;;;0.00;0.00;;;25.10;41.40;;;;;;5087541;28;20243;-48
2024/01/01 01:34:21;;;;;;;0.00;0.00;;;25.10;41.50;;;;;;5089678;28;20208;-45
2024/01/01 01:36:52;;;;;;;0.00;0.00;;;25.10;41.40;;;;;;5071375;28;20226;-46
2024/01/01 01:39:23;;;;;;;0.00;0.00;;;25.10;41.50;;;;;;5069603;28;20223;-50
2024/01/01 01:41:57;;;;;;;0.00;0.00;;;25.10;41.40;;;;;;5068158;28;20194;-57
2024/01/01 01:44:29;;;;;;;0.00;0.00;;;25.10;41.40;;;;;;5068126;28;20200;-61
2024/01/01 01:46:59;;;;;;;0.22;0.10;;;25.10;41.40;;;;;;5068499;28;20214;-61
2024/01/01 01:49:30;;;;;;;0.00;0.00;;;25.00;41.30;;;;;;5068737;28;20190;-54
2024/01/01 01:52:03;;;;;;;0.00;0.00;;;24.90;41.40;;;;;;5068531;28;20195;-51
2024/01/01 01:54:35;;;;;;;0.22;0.22;;;24.80;41.60;;;;;;5068095;28;20194;-55
2024/01/01 01:57:09;;;;;;;0.00;0.00;;;24.70;41.80;;;;;;5068945;28;20241;-54
2024/01/01 01:59:42;;;;;;;1.70;1.60;;;24.60;42.10;;;;;;5068542;28;20694;-53
2024/01/01 02:02:13;;;;;;;0.40;0.40;;;24.50;42.30;;;;;;5068062;28;20546;-56
2024/01/01 02:04:46;;;;;;;0.00;0.00;;;24.40;42.40;;;;;;5068752;28;20214;-59
2024/01/01 02:07:16;;;;;;;0.08;0.08;;;24.40;42.40;;;;;;5073437;28;20339;-55
2024/01/01 02:09:47;;;;;;;0.00;0.00;;;24.30;42.50;;;;;;5082166;28;20631;-57
2024/01/01 02:12:20;;;;;;;0.00;0.00;;;24.20;42.80;;;;;;5068747;28;20202;-56
2024/01/01 02:14:50;;;;;;;0.00;0.00;;;24.20;43.10;;;;;;5068424;28;20195;-57
2024/01/01 02:17:21;;;;;;;0.00;0.00;;;24.10;43.30;;;;;;5067998;28;20225;-57
2024/01/01 02:19:52;;;;;;;0.00;0.00;;;24.00;43.30;;;;;;5068140;28;20226;-56
2024/01/01 02:22:23;;;;;;;0.00;0.00;;;24.00;43.20;;;;;;5048452;28;20265;-57
2024/01/01 02:24:55;;;;;;;0.00;0.00;;;23.90;43.30;;;;;;5055168;28;20194;-54
2024/01/01 02:27:26;;;;;;;0.00;0.00;;;23.80;43.40;;;;;;5067867;28;20222;-51
2024/01/01 02:29:57;;;;;;;0.00;0.00;;;23.80;43.50;;;;;;5067374;28;20195;-50
2024/01/01 02:32:27;;;;;;;0.00;0.00;;;23.70;43.70;;;;;;5067861;28;20202;-54
2024/01/01 02:34:58;;;;;;;0.00;0.00;;;23.70;44.00;;;;;;5067577;28;20201;-58
2024/01/01 02:37:29;;;;;;;0.00;0.00;;;23.60;44.00;;;;;;5069839;28;20218;-56
2024/01/01 02:40:01;;;;;;;0.00;0.00;;;23.60;44.10;;;;;;5071392;28;20219;-54
2024/01/01 02:42:32;;;;;;;0.10;0.10;;;23.50;44.10;;;;;;5071496;28;20206;-57
2024/01/01 02:45:03;;;;;;;0.00;0.00;;;23.40;44.20;;;;;;5071467;28;20199;-54
2024/01/01 02:47:35;;;;;;;0.00;0.00;;;23.40;44.20;;;;;;5071227;28;20717;-56
2024/01/01 02:50:06;;;;;;;0.00;0.00;;;23.30;44.10;;;;;;5071296;28;20195;-56
2024/01/01 02:52:37;;;;;;;0.10;0.10;;;23.30;44.30;;;;;;5068863;28;20225;-43
2024/01/01 02:55:10;;;;;;;0.00;0.00;;;23.30;44.30;;;;;;5067626;28;20261;-44
2024/01/01 02:57:40;;;;;;;0.00;0.00;;;23.20;44.40;;;;;;5067735;28;20219;-44
2024/01/01 03:00:14;;;;;;;0.00;0.00;;;23.20;44.50;;;;;;5067732;28;20218;-45
2024/01/01 03:02:45;;;;;;;0.00;0.00;;;23.20;44.60;;;;;;5066664;28;20206;-45
2024/01/01 03:05:16;;;;;;;0.00;0.00;;;23.30;44.60;;;;;;5068155;28;20191;-41
2024/01/01 03:07:47;;;;;;;0.10;0.10;;;23.30;44.50;;;;;;5076225;28;20244;-45
2024/01/01 03:10:19;;;;;;;0.08;0.08;;;23.30;44.60;;;;;;5079681;28;20652;-42
2024/01/01 03:12:50;;;;;;;0.00;0.00;;;23.30;44.40;;;;;;5066583;28;20209;-43
2024/01/01 03:15:21;;;;;;;0.00;0.00;;;23.40;44.40;;;;;;5066074;28;20195;-44
2024/01/01 03:17:51;;;;;;;0.00;0.00;;;23.50;44.50;;;;;;5066945;28;20229;-43
2024/01/01 03:20:23;;;;;;;0.00;0.00;;;23.50;44.40;;;;;;5067086;28;20732;-41
2024/01/01 03:22:54;;;;;;;0.00;0.00;;;23.60;44.40;;;;;;5066846;28;20202;-46
2024/01/01 03:25:26;;;;;;;0.00;0.00;;;23.60;44.30;;;;;;5075329;28;20198;-44
2024/01/01 03:27:57;;;;;;;0.00;0.00;;;23.70;44.40;;;;;;5075016;28;20226;-45
2024/01/01 03:30:28;;;;;;;0.00;0.00;;;23.70;44.30;;;;;;5076009;28;20243;-43
2024/01/01 03:32:58;;;;;;;0.00;0.00;;;23.80;44.30;;;;;;5087032;28;20254;-46
2024/01/01 03:35:31;;;;;;;0.10;0.10;;;23.90;44.30;;;;;;5067915;28;20203;-44
2024/01/01 03:38:02;;;;;;;0.00;0.00;;;23.90;44.30;;;;;;5078561;28;20613;-42
2024/01/01 03:40:34;;;;;;;0.00;0.00;;;24.00;44.30;;;;;;5078646;28;20235;-43
2024/01/01 03:43:05;;;;;;;0.00;0.00;;;24.00;44.80;;;;;;5067088;28;20254;-47
2024/01/01 03:45:36;;;;;;;0.00;0.00;;;24.10;44.10;;;;;;5085382;22;20313;-47
2024/01/01 03:48:07;;;;;;;0.00;0.00;;;24.10;44.00;;;;;;5084529;28;20221;-48
2024/01/01 03:50:38;;;;;;;0.00;0.00;;;24.20;44.60;;;;;;5087556;28;20194;-45
2024/01/01 03:53:09;;;;;;;0.00;0.00;;;24.20;43.90;;;;;;5087682;28;20206;-46
2024/01/01 03:55:41;;;;;;;0.00;0.00;;;24.20;43.80;;;;;;5087788;28;20465;-48
2024/01/01 03:58:12;;;;;;;0.00;0.00;;;24.30;43.70;;;;;;5087988;28;20194;-47
2024/01/01 04:00:43;;;;;;;0.00;0.00;;;24.30;43.60;;;;;;5086411;28;20214;-50
2024/01/01 04:03:13;;;;;;;0.00;0.00;;;24.40;43.70;;;;;;5086986;28;20209;-48
2024/01/01 04:05:44;;;;;;;0.00;0.00;;;24.40;43.60;;;;;;5087325;28;20194;-49
2024/01/01 04:08:15;;;;;;;0.00;0.00;;;24.50;43.60;;;;;;5087093;28;20209;-49
2024/01/01 04:10:47;;;;;;;0.00;0.00;;;24.50;43.50;;;;;;5086632;28;20664;-49
2024/01/01 04:13:18;;;;;;;0.00;0.00;;;24.50;43.50;;;;;;5086856;28;20217;-48
2024/01/01 04:15:49;;;;;;;0.00;0.00;;;24.60;43.40;;;;;;5088135;28;20201;-47
2024/01/01 04:18:19;;;;;;;0.00;0.00;;;24.60;44.00;;;;;;5091728;28;20200;-49
2024/01/01 04:20:50;;;;;;;0.03;0.03;;;24.70;43.50;;;;;;5091098;28;20222;-47
2024/01/01 04:23:22;;;;;;;0.00;0.00;;;24.70;43.70;;;;;;5090835;28;20204;-48
2024/01/01 04:25:54;;;;;;;0.05;0.05;;;24.70;43.90;;;;;;5090447;28;20650;-48
2024/01/01 04:28:25;;;;;;;0.00;0.00;;;24.80;43.90;;;;;;5090714;28;20201;-48
2024/01/01 04:30:56;;;;;;;0.00;0.00;;;24.80;43.90;;;;;;5089883;28;20197;-46
2024/01/01 04:33:26;;;;;;;0.00;0.00;;;24.90;43.80;;;;;;5090542;28;20205;-48
2024/01/01 04:35:57;;;;;;;0.00;0.00;;;24.90;43.70;;;;;;5090214;28;20194;-48
2024/01/01 04:38:28;;;;;;;0.00;0.00;;;24.90;43.80;;;;;;5090246;28;20566;-49
2024/01/01 04:41:00;;;;;;;0.00;0.00;;;25.00;43.80;;;;;;5090957;28;20230;-47
2024/01/01 04:43:31;;;;;;;0.00;0.00;;;25.00;43.70;;;;;;5090266;28;20198;-46
2024/01/01 04:46:02;;;;;;;0.00;0.00;;;25.00;43.80;;;;;;5090389;28;20226;-48
2024/01/01 04:48:32;;;;;;;0.00;0.00;;;25.10;43.90;;;;;;5090753;28;20202;-47
2024/01/01 04:51:03;;;;;;;0.00;0.00;;;25.10;43.90;;;;;;5082396;28;20198;-46
2024/01/01 04:53:34;;;;;;;0.00;0.00;;;25.10;44.00;;;;;;5090624;28;20202;-46
2024/01/01 04:56:07;;;;;;;0.10;0.10;;;25.20;44.00;;;;;;5089917;28;20226;-46
2024/01/01 04:58:38;;;;;;;0.00;0.00;;;25.20;44.00;;;;;;5088362;28;20201;-46
2024/01/01 05:01:09;;;;;;;0.00;0.00;;;25.30;43.80;;;;;;5088796;28;20225;-46
2024/01/01 05:03:39;;;;;;;0.00;0.00;;;25.30;43.70;;;;;;5089748;28;20194;-47
2024/01/01 05:06:10;;;;;;;0.00;0.00;;;25.30;43.60;;;;;;5088945;28;20708;-46
2024/01/01 05:08:41;;;;;;;0.00;0.00;;;25.30;43.50;;;;;;5089900;28;20669;-48
2024/01/01 05:11:14;;;;;;;0.10;0.10;;;25.40;43.40;;;;;;5089751;28;20197;-48
2024/01/01 05:13:44;;;;;;;0.00;0.00;;;25.40;44.00;;;;;;5090141;28;20194;-47
2024/01/01 05:16:15;;;;;;;0.00;0.00;;;25.40;43.30;;;;;;5089000;28;20237;-46
2024/01/01 05:18:46;;;;;;;0.00;0.00;;;25.40;43.20;;;;;;5089423;28;20952;-47
2024/01/01 05:21:16;;;;;;;0.00;0.00;;;25.50;43.10;;;;;;5088173;28;20225;-47
2024/01/01 05:23:47;;;;;;;0.00;0.00;;;25.50;43.10;;;;;;5088732;28;20190;-48
2024/01/01 05:26:20;;;;;;;0.00;0.00;;;25.50;43.00;;;;;;5089378;28;20210;-47
2024/01/01 05:28:50;;;;;;;0.00;0.00;;;25.50;42.90;;;;;;5088752;28;20561;-45
2024/01/01 05:31:23;;;;;;;0.00;0.00;;;25.60;42.90;;;;;;5089268;28;20186;-46
2024/01/01 05:33:53;;;;;;;0.00;0.00;;;25.60;42.80;;;;;;5090237;28;20205;-46
2024/01/01 05:36:24;;;;;;;0.00;0.00;;;25.60;42.70;;;;;;5088691;28;20217;-46
2024/01/01 05:38:55;;;;;;;0.00;0.00;;;25.60;42.60;;;;;;5089602;28;20201;-47
2024/01/01 05:41:27;;;;;;;0.00;0.00;;;25.60;42.60;;;;;;5089439;28;20225;-46
2024/01/01 05:43:58;;;;;;;0.00;0.00;;;25.60;42.50;;;;;;5088668;28;20205;-46
2024/01/01 05:46:31;;;;;;;0.00;0.00;;;25.60;42.50;;;;;;5087721;28;20218;-47
2024/01/01 05:49:01;;;;;;;0.00;0.00;;;25.60;42.40;;;;;;5089186;28;20233;-49
2024/01/01 05:51:32;;;;;;;0.00;0.00;;;25.60;42.40;;;;;;5078989;28;20837;-46
2024/01/01 05:54:03;;;;;;;0.00;0.00;;;25.60;42.30;;;;;;5089326;28;20205;-45
2024/01/01 05:56:35;;;;;;;0.00;0.00;;;25.60;42.30;;;;;;5088716;28;20218;-48
2024/01/01 05:59:06;;;;;;;0.00;0.00;;;25.60;42.30;;;;;;5088711;28;20204;-45
2024/01/01 06:01:37;;;;;;;0.00;0.00;;;25.60;42.40;;;;;;5089092;28;20233;-46
2024/01/01 06:04:08;;;;;;;0.00;0.00;;;25.60;42.30;;;;;;5087972;28;20209;-46
2024/01/01 06:06:39;;;;;;;0.00;0.00;;;25.60;42.30;;;;;;5088776;28;20210;-45
2024/01/01 06:09:09;;;;;;;0.00;0.00;;;25.70;42.40;;;;;;5067526;28;20558;-48
2024/01/01 06:11:42;;;;;;;0.00;0.00;;;25.70;42.40;;;;;;5078647;28;20240;-45
2024/01/01 06:14:14;;;;;;;0.00;0.00;;;25.70;42.40;;;;;;5088687;28;20461;-45
2024/01/01 06:16:45;;;;;;;0.00;0.00;;;25.60;42.30;;;;;;5087832;28;20255;-45
2024/01/01 06:19:16;;;;;;;0.00;0.00;;;25.70;42.40;;;;;;5088511;28;20250;-45
2024/01/01 06:21:46;;;;;;;0.00;0.00;;;25.70;42.40;;;;;;5087637;28;20222;-46
2024/01/01 06:24:17;;;;;;;0.00;0.00;;;25.70;42.30;;;;;;5088935;28;20194;-45
2024/01/01 06:26:50;;;;;;;0.00;0.00;;;25.70;42.30;;;;;;5087694;28;20222;-46
2024/01/01 06:29:20;;;;;;;0.00;0.00;;;25.80;42.30;;;;;;5088334;28;20194;-47
2024/01/01 06:31:51;;;;;;;0.00;0.00;;;25.80;42.30;;;;;;5087980;28;20194;-45
2024/01/01 06:34:22;;;;;;;0.00;0.00;;;25.80;42.30;;;;;;5088366;28;20208;-45
2024/01/01 06:36:52;;;;;;;0.00;0.00;;;25.80;42.20;;;;;;5088325;28;20566;-45
2024/01/01 06:39:23;;;;;;;0.00;0.00;;;25.80;42.20;;;;;;5087565;28;20209;-46
2024/01/01 06:41:56;;;;;;;0.00;0.00;;;25.80;42.30;;;;;;5087420;28;20607;-45
2024/01/01 06:44:27;;;;;;;0.00;0.00;;;25.80;42.20;;;;;;5086508;28;20195;-45
2024/01/01 06:46:58;;;;;;;0.00;0.00;;;25.90;42.30;;;;;;5088030;28;20252;-46
2024/01/01 06:49:28;;;;;;;0.00;0.00;;;25.90;42.30;;;;;;5084230;28;20198;-45
2024/01/01 06:51:59;;;;;;;0.00;0.00;;;25.90;42.30;;;;;;5087445;28;20217;-46
2024/01/01 06:54:30;;;;;;;0.00;0.00;;;25.90;42.30;;;;;;5091527;28;20214;-46
2024/01/01 06:57:02;;;;;;;0.00;0.00;;;25.90;42.20;;;;;;5091592;28;20218;-46
2024/01/01 06:59:34;;;;;;;0.00;0.00;;;25.90;42.30;;;;;;5091273;28;20209;-47
2024/01/01 07:02:05;;;;;;;0.00;0.00;;;25.90;42.20;;;;;;5091642;28;20222;-47
2024/01/01 07:04:35;;;;;;;0.00;0.00;;;26.00;42.80;;;;;;5091483;28;20224;-47
2024/01/01 07:07:06;;;;;;;0.00;0.00;;;26.00;42.20;;;;;;5090995;28;20229;-45
2024/01/01 07:09:37;;;;;;;0.00;0.00;;;26.00;42.10;;;;;;5090923;28;20199;-46
2024/01/01 07:12:23;;;;;;;0.00;0.00;;;26.00;42.10;;;;;;5091336;28;20194;-45
2024/01/01 07:14:54;;;;;;;0.00;0.00;;;26.00;42.70;;;;;;5090811;28;20198;-46
2024/01/01 07:17:25;;;;;;;0.00;0.00;;;26.00;42.70;;;;;;5090700;28;20206;-45
2024/01/01 07:19:55;;;;;;;0.00;0.00;;;26.00;42.10;;;;;;5090891;28;20200;-45
2024/01/01 07:22:26;;;;;;;0.00;0.00;;;26.00;42.10;;;;;;5090692;28;20225;-45
2024/01/01 07:24:57;;;;;;;0.00;0.00;;;26.00;42.00;;;;;;5090340;28;20198;-46
2024/01/01 07:27:29;;;;;;;0.00;0.00;;;26.00;42.00;;;;;;5091453;28;20509;-46
2024/01/01 07:30:00;;;;;;;0.00;0.00;;;26.00;42.00;;;;;;5090350;28;20194;-44
2024/01/01 07:32:31;;;;;;;0.00;0.00;;;26.00;42.00;;;;;;5091192;28;20201;-45
2024/01/01 07:35:02;;;;;;;0.00;0.00;;;26.00;42.00;;;;;;5091387;28;20205;-45
2024/01/01 07:37:32;;;;;;;0.00;0.00;;;26.00;42.00;;;;;;5091356;28;20225;-45
2024/01/01 07:40:04;;;;;;;0.00;0.00;;;26.00;42.00;;;;;;5091176;28;20236;-45
2024/01/01 07:42:37;;;;;;;0.00;0.00;;;26.00;42.00;;;;;;5090602;28;20650;-46
2024/01/01 07:45:08;;;;;;;0.00;0.00;;;26.00;42.00;;;;;;5089754;28;20649;-45
2024/01/01 07:47:38;;;;;;;0.00;0.00;;;26.00;42.00;;;;;;5067379;22;20717;-45
2024/01/01 07:50:12;;;;;;;0.00;0.00;;;26.10;42.00;;;;;;5053561;28;20202;-45
2024/01/01 07:52:43;;;;;;;0.00;0.00;;;26.00;42.00;;;;;;5055151;28;20195;-44
2024/01/01 07:55:14;;;;;;;0.00;0.00;;;26.10;42.00;;;;;;5054707;28;20202;-43
2024/01/01 07:57:47;;;;;;;0.00;0.00;;;26.10;42.00;;;;;;5054380;28;20216;-40
2024/01/01 08:00:19;;;;;;;0.00;0.00;;;26.10;42.00;;;;;;5054544;28;20195;-41
2024/01/01 08:02:49;;;;;;;0.00;0.00;;;26.00;42.00;;;;;;5054626;28;20719;-43
2024/01/01 08:05:20;;;;;;;0.00;0.00;;;26.00;42.00;;;;;;5054451;28;20202;-43
2024/01/01 08:07:51;;;;;;;0.00;0.00;;;26.00;42.00;;;;;;5054158;28;20215;-43
2024/01/01 08:10:22;;;;;;;0.00;0.00;;;26.00;42.00;;;;;;5054647;28;20199;-47
2024/01/01 08:12:54;;;;;;;0.00;0.00;;;26.00;42.00;;;;;;5054574;28;20195;-47
2024/01/01 08:15:25;;;;;;;0.00;0.00;;;26.00;42.00;;;;;;5057118;28;20191;-43
2024/01/01 08:17:55;;;;;;;0.00;0.00;;;26.00;42.10;;;;;;5054518;28;20243;-42
2024/01/01 08:20:26;;;;;;;0.00;0.00;;;25.90;42.00;;;;;;5054549;28;20198;-44
2024/01/01 08:22:57;;;;;;;0.00;0.00;;;25.90;42.00;;;;;;5054633;28;20219;-47
2024/01/01 08:25:28;;;;;;;0.00;0.00;;;25.90;42.00;;;;;;5054132;28;20192;-41
2024/01/01 08:28:01;;;;;;;0.00;0.00;;;25.90;42.00;;;;;;5053844;28;20219;-47
2024/01/01 08:30:32;;;;;;;0.00;0.00;;;25.90;42.10;;;;;;5053709;28;20195;-44
2024/01/01 08:33:02;;;;;;;0.00;0.00;;;25.90;42.10;;;;;;5053688;28;20214;-45
2024/01/01 08:35:33;;;;;;;0.00;0.00;;;25.90;42.10;;;;;;5053808;28;20206;-45
2024/01/01 08:38:04;;;;;;;0.00;0.00;;;25.90;42.10;;;;;;5053755;28;20303;-39
2024/01/01 08:40:35;;;;;;;0.00;0.00;;;25.90;42.10;;;;;;5053884;28;21648;-45
2024/01/01 08:43:11;;;;;;;0.00;0.00;;;25.90;42.10;;;;;;5053762;28;20199;-49
2024/01/01 08:45:42;;;;;;;0.03;0.03;;;25.90;42.10;;;;;;5054153;28;20187;-45
2024/01/01 08:48:12;;;;;;;0.08;0.08;;;25.80;42.00;;;;;;5053542;28;20192;-47
2024/01/01 08:50:43;;;;;;;0.00;0.00;;;25.80;42.00;;;;;;5053997;28;20224;-50
2024/01/01 08:53:14;;;;;;;0.00;0.00;;;25.80;41.90;;;;;;5049365;28;20313;-45
2024/01/01 08:55:44;;;;;;;0.00;0.00;;;25.80;41.90;;;;;;5050042;28;20218;-50
2024/01/01 08:58:17;;;;;;;0.00;0.00;;;25.80;41.90;;;;;;5048817;28;20196;-50
2024/01/01 09:00:48;;;;;;;0.00;0.00;;;25.80;41.90;;;;;;5029172;28;20555;-50
2024/01/01 09:03:19;;;;;;;0.00;0.00;;;25.70;41.80;;;;;;5038381;28;20196;-49
2024/01/01 09:05:50;;;;;;;0.00;0.00;;;25.70;41.90;;;;;;5048706;28;20586;-45
2024/01/01 09:08:20;;;;;;;0.00;0.00;;;25.70;41.80;;;;;;5049542;28;20199;-50
2024/01/01 09:10:51;;;;;;;0.00;0.00;;;25.70;41.80;;;;;;5052259;28;20615;-51
2024/01/01 09:13:24;;;;;;;0.00;0.00;;;25.60;41.80;;;;;;5048954;28;20591;-46
2024/01/01 09:15:55;;;;;;;0.00;0.00;;;25.60;41.80;;;;;;5068866;28;20194;-50
2024/01/01 09:18:26;;;;;;;0.00;0.00;;;25.60;41.80;;;;;;5054174;28;20475;-48
2024/01/01 09:20:56;;;;;;;0.00;0.00;;;25.60;41.90;;;;;;5049160;28;20204;-43
2024/01/01 09:23:27;;;;;;;0.00;0.00;;;25.60;41.90;;;;;;5048840;28;20540;-49
2024/01/01 09:25:59;;;;;;;0.00;0.00;;;25.50;41.90;;;;;;5048818;28;20664;-48
2024/01/01 09:28:31;;;;;;;0.00;0.00;;;25.50;41.90;;;;;;5049232;28;20204;-44
2024/01/01 09:31:02;;;;;;;0.00;0.00;;;25.50;41.80;;;;;;5049898;28;20203;-49
2024/01/01 09:33:33;;;;;;;0.00;0.00;;;25.50;41.90;;;;;;5049138;28;20191;-46
2024/01/01 09:36:03;;;;;;;0.00;0.00;;;25.50;41.90;;;;;;5048876;28;20246;-46
2024/01/01 09:38:34;;;;;;;0.00;0.00;;;25.50;41.90;;;;;;5048543;28;20207;-50
2024/01/01 09:41:07;;;;;;;0.00;0.00;;;25.50;41.90;;;;;;5048948;28;20200;-47
2024/01/01 09:43:42;;;;;;;0.00;0.00;;;25.40;41.80;;;;;;5047657;28;20199;-47
2024/01/01 09:46:14;;;;;;;0.00;0.00;;;25.40;41.80;;;;;;5049348;28;20251;-48
2024/01/01 09:48:45;;;;;;;0.00;0.00;;;25.40;41.80;;;;;;5051636;28;20230;-49
2024/01/01 09:51:16;;;;;;;0.00;0.00;;;25.30;41.80;;;;;;5048806;28;20200;-50
2024/01/01 09:53:48;;;;;;;0.00;0.00;;;25.30;41.80;;;;;;5048896;28;20198;-46
2024/01/01 09:56:20;;;;;;;0.00;0.00;;;25.30;41.80;;;;;;5048483;28;20223;-49
2024/01/01 09:58:53;;;;;;;0.00;0.00;;;25.30;42.40;;;;;;5048210;28;20674;-47
2024/01/01 10:01:23;;;;;;;0.00;0.00;;;25.30;41.80;;;;;;5048729;28;20219;-48
2024/01/01 10:04:03;;;;;;;0.00;0.00;;;25.30;41.80;;;;;;5047514;28;20191;-47
2024/01/01 10:06:36;;;;;;;0.00;0.00;;;25.20;41.80;;;;;;5048684;28;20222;-50
2024/01/01 10:09:10;;;;;;;0.00;0.00;;;25.20;41.80;;;;;;5040524;28;20263;-50
2024/01/01 10:11:42;;;;;;;0.00;0.00;;;25.20;41.80;;;;;;5048318;28;20202;-50
2024/01/01 10:14:15;;;;;;;0.00;0.00;;;25.20;41.80;;;;;;5048061;28;20257;-44
2024/01/01 10:16:46;;;;;;;0.00;0.00;;;25.10;41.80;;;;;;5047566;28;20225;-50
2024/01/01 10:19:17;;;;;;;0.00;0.00;;;25.10;41.70;;;;;;5048439;28;20670;-45
2024/01/01 10:21:48;;;;;;;0.00;0.00;;;25.10;41.80;;;;;;5050544;28;20207;-49
2024/01/01 10:24:21;;;;;;;0.00;0.00;;;25.10;41.80;;;;;;5048410;28;20639;-47
2024/01/01 10:26:52;;;;;;;0.00;0.00;;;25.10;41.80;;;;;;5046446;28;20310;-47
2024/01/01 10:29:26;;;;;;;0.00;0.00;;;25.00;41.70;;;;;;5046972;28;20196;-48
2024/01/01 10:31:57;;;;;;;0.00;0.00;;;25.00;41.70;;;;;;5046930;28;20590;-49
2024/01/01 10:34:31;;;;;;;0.00;0.00;;;25.00;41.70;;;;;;5047262;28;20199;-48
2024/01/01 10:37:03;;;;;;;0.00;0.00;;;25.00;41.80;;;;;;5047567;28;20211;-45
2024/01/01 10:39:34;;;;;;;0.00;0.00;;;24.90;41.80;;;;;;5047750;28;20203;-45
2024/01/01 10:42:05;;;;;;;0.00;0.00;;;24.90;41.70;;;;;;5047794;28;20619;-41
2024/01/01 10:44:38;;;;;;;0.00;0.00;;;24.90;41.80;;;;;;5047491;28;20198;-48
2024/01/01 10:47:11;;;;;;;0.00;0.00;;;24.90;41.80;;;;;;5048452;28;20227;-47
2024/01/01 10:49:47;;;;;;;0.00;0.00;;;24.80;41.80;;;;;;5047645;28;20204;-48
2024/01/01 10:52:37;;;;;;;0.00;0.00;;;24.80;41.80;;;;;;5048541;28;20560;-46
2024/01/01 10:55:31;;;;;;;0.00;0.00;;;24.80;41.80;;;;;;5047791;28;20276;-47
2024/01/01 10:58:19;;;;;;;0.00;0.00;;;24.80;41.80;;;;;;5045953;28;20219;-44
2024/01/01 11:01:06;;;;;;;0.00;0.00;;;24.70;41.90;;;;;;5027333;28;20200;-48
2024/01/01 11:03:38;;;;;;;0.00;0.00;;;24.70;41.90;;;;;;5036769;28;20611;-47
2024/01/01 11:06:31;;;;;;;0.00;0.00;;;24.70;41.90;;;;;;5059757;28;20218;-45
2024/01/01 11:09:16;;;;;;;0.00;0.00;;;24.60;41.90;;;;;;5033203;28;20547;-48
2024/01/01 11:11:49;;;;;;;0.00;0.00;;;24.70;42.00;;;;;;5046984;28;20198;-50
2024/01/01 11:14:27;;;;;;;0.00;0.00;;;24.60;42.00;;;;;;5049828;28;20191;-52
2024/01/01 11:17:03;;;;;;;0.00;0.00;;;24.60;42.00;;;;;;5047702;28;20699;-54
2024/01/01 11:19:41;;;;;;;0.00;0.00;;;24.50;42.00;;;;;;5047117;28;20195;-49
2024/01/01 11:22:39;;;;;;;0.00;0.00;;;24.60;42.10;;;;;;5048089;28;20324;-47
2024/01/01 11:25:10;;;;;;;0.00;0.00;;;24.50;42.10;;;;;;5052455;28;20203;-54
2024/01/01 11:27:50;;;;;;;0.00;0.00;;;24.50;42.10;;;;;;5053881;28;20222;-48
2024/01/01 11:30:21;;;;;;;0.00;0.00;;;24.50;42.20;;;;;;5053727;28;20206;-48
2024/01/01 11:33:03;;;;;;;0.00;0.00;;;24.50;42.20;;;;;;5054017;28;20203;-47
2024/01/01 11:35:34;;;;;;;0.00;0.00;;;24.50;42.30;;;;;;5052860;28;20199;-48
2024/01/01 11:38:04;;;;;;;0.00;0.00;;;24.40;42.20;;;;;;5056634;28;20246;-50
2024/01/01 11:40:35;;;;;;;0.00;0.00;;;24.40;42.20;;;;;;5055714;28;20187;-46
2024/01/01 11:43:10;;;;;;;0.00;0.00;;;24.40;42.20;;;;;;5058168;28;20231;-49
2024/01/01 11:45:41;;;;;;;0.00;0.00;;;24.40;42.30;;;;;;5058363;28;20761;-47
2024/01/01 11:48:14;;;;;;;0.00;0.00;;;24.30;42.20;;;;;;5057479;28;20568;-46
2024/01/01 11:50:46;;;;;;;0.00;0.00;;;24.30;42.30;;;;;;5057463;28;20199;-49
2024/01/01 11:53:19;;;;;;;0.00;0.00;;;24.30;42.30;;;;;;5057556;28;20207;-49
2024/01/01 11:55:50;;;;;;;0.00;0.00;;;24.30;42.30;;;;;;5057459;28;20206;-49
2024/01/01 11:58:21;;;;;;;0.00;0.00;;;24.30;42.30;;;;;;5057238;28;20625;-47
2024/01/01 12:00:52;;;;;;;0.00;0.00;;;24.20;42.30;;;;;;5054574;28;20199;-46
2024/01/01 12:03:25;;;;;;;0.00;0.00;;;24.20;42.30;;;;;;5056836;28;20216;-44
2024/01/01 12:06:04;;;;;;;0.00;0.00;;;24.20;42.30;;;;;;5054156;28;20194;-48
2024/01/01 12:08:35;;;;;;;0.00;0.00;;;24.20;42.40;;;;;;5057400;28;20198;-48
2024/01/01 12:11:06;;;;;;;0.00;0.00;;;24.20;42.30;;;;;;5057264;28;20290;-51
2024/01/01 12:13:37;;;;;;;0.00;0.00;;;24.20;42.30;;;;;;5054599;28;20192;-47
2024/01/01 12:16:19;;;;;;;0.00;0.00;;;24.20;42.40;;;;;;5057255;28;20218;-51
2024/01/01 12:18:57;;;;;;;0.00;0.00;;;24.10;42.40;;;;;;5057625;28;20195;-50
2024/01/01 12:21:38;;;;;;;0.00;0.00;;;24.20;42.40;;;;;;5057345;28;20253;-52
2024/01/01 12:24:10;;;;;;;0.00;0.00;;;24.10;42.40;;;;;;5059398;28;20273;-53
2024/01/01 12:26:43;;;;;;;0.00;0.00;;;24.10;42.40;;;;;;5057327;28;20284;-49
2024/01/01 12:29:13;;;;;;;0.00;0.00;;;24.10;42.50;;;;;;5057707;28;20694;-50
2024/01/01 12:31:45;;;;;;;0.00;0.00;;;24.00;42.50;;;;;;5057623;28;20226;-51
2024/01/01 12:34:21;;;;;;;0.00;0.00;;;24.00;42.50;;;;;;5057337;28;20191;-48
2024/01/01 12:36:52;;;;;;;0.00;0.00;;;24.00;42.50;;;;;;5053346;28;20302;-47
2024/01/01 12:39:23;;;;;;;0.03;0.03;;;24.00;42.50;;;;;;5054252;28;20203;-42
2024/01/01 12:41:54;;;;;;;0.00;0.00;;;24.00;42.50;;;;;;5054167;28;20192;-48
2024/01/01 12:44:25;;;;;;;0.00;0.00;;;23.90;42.50;;;;;;5054230;28;20241;-46
2024/01/01 12:46:57;;;;;;;0.00;0.00;;;23.90;42.60;;;;;;5054251;28;20223;-42
2024/01/01 12:49:33;;;;;;;0.00;0.00;;;23.90;42.60;;;;;;5054207;28;20196;-43
2024/01/01 12:52:04;;;;;;;0.00;0.00;;;23.90;42.60;;;;;;5053804;28;20191;-44
2024/01/01 12:54:35;;;;;;;0.00;0.00;;;23.90;42.60;;;;;;5053911;28;20192;-46
2024/01/01 12:57:05;;;;;;;0.00;0.00;;;23.80;42.60;;;;;;5053782;28;20218;-47
2024/01/01 12:59:36;;;;;;;0.00;0.00;;;23.80;42.60;;;;;;5053571;28;20652;-42
2024/01/01 13:02:07;;;;;;;0.00;0.00;;;23.80;42.60;;;;;;5053422;28;20198;-50
2024/01/01 13:04:40;;;;;;;0.00;0.00;;;23.80;42.60;;;;;;5053673;28;20199;-50
2024/01/01 13:07:11;;;;;;;0.00;0.00;;;23.80;42.60;;;;;;5060298;28;20215;-52
2024/01/01 13:09:41;;;;;;;0.00;0.00;;;23.80;42.60;;;;;;5053875;28;20199;-47
2024/01/01 13:12:12;;;;;;;0.00;0.00;;;23.80;42.60;;;;;;5054183;28;20196;-43